Time;durP1;ratioP1;P1;durP2;ratioP2;P2;SDS_P1;SDS_P2;PMS_P1;PMS_P2;Temp;Humidity;BMP_temperature;BMP_pressure;BME280_temperature;BME280_humidity;BME280_pressure;Samples;Min_cycle;Max_cycle;Signal;HPM_P1;HPM_P2
2022/08/10 00:00:21;;;;;;;1.48;0.40;;;;;;;18.86;57.21;101498.94;5002574;28;20153;-72
2022/08/10 00:02:55;;;;;;;0.57;0.40;;;;;;;18.82;57.58;101496.78;5015944;28;20045;-71
2022/08/10 00:05:21;;;;;;;1.03;0.53;;;;;;;18.81;57.31;101491.53;5039482;28;20029;-72
2022/08/10 00:07:47;;;;;;;0.82;0.52;;;;;;;18.79;56.88;101490.97;5037879;28;20061;-72
2022/08/10 00:10:14;;;;;;;1.02;0.65;;;;;;;18.77;56.95;101490.47;5025757;28;20033;-73
2022/08/10 00:12:41;;;;;;;0.40;0.40;;;;;;;18.78;56.46;101483.81;5040790;28;20113;-72
2022/08/10 00:15:07;;;;;;;0.50;0.50;;;;;;;18.74;56.32;101485.50;5020886;28;20068;-72
2022/08/10 00:17:33;;;;;;;0.65;0.52;;;;;;;18.75;56.21;101481.59;5021502;28;20474;-70
2022/08/10 00:19:59;;;;;;;0.40;0.30;;;;;;;18.74;56.51;101483.56;5037364;28;20037;-72
2022/08/10 00:22:24;;;;;;;0.30;0.30;;;;;;;18.70;55.76;101484.44;5022785;28;20031;-73
2022/08/10 00:24:50;;;;;;;0.40;0.40;;;;;;;18.73;55.46;101486.63;5036912;28;20726;-72
2022/08/10 00:27:15;;;;;;;0.85;0.40;;;;;;;18.72;55.55;101482.19;5040634;28;20026;-72
2022/08/10 00:29:40;;;;;;;0.70;0.45;;;;;;;18.72;55.42;101491.34;5038829;28;20048;-72
2022/08/10 00:32:06;;;;;;;0.63;0.60;;;;;;;18.67;54.93;101478.41;5037559;28;20052;-72
2022/08/10 00:34:33;;;;;;;0.73;0.40;;;;;;;18.64;55.10;101476.19;5024922;28;20068;-72
2022/08/10 00:37:00;;;;;;;0.80;0.50;;;;;;;18.64;55.14;101476.19;5038002;28;20045;-72
2022/08/10 00:39:27;;;;;;;1.35;0.40;;;;;;;18.63;54.96;101479.25;5048039;28;20044;-73
2022/08/10 00:41:52;;;;;;;1.10;0.70;;;;;;;18.55;54.75;101472.44;5048818;28;20017;-73
2022/08/10 00:44:18;;;;;;;0.80;0.45;;;;;;;18.56;55.07;101476.84;5028994;28;20033;-72
2022/08/10 00:46:43;;;;;;;0.93;0.80;;;;;;;18.52;54.51;101484.09;5038658;28;20053;-70
2022/08/10 00:49:09;;;;;;;1.15;0.85;;;;;;;18.52;54.98;101483.28;5018943;28;20029;-70
2022/08/10 00:51:35;;;;;;;1.10;1.00;;;;;;;18.48;54.53;101489.38;5030092;28;20108;-72
2022/08/10 00:54:01;;;;;;;2.17;0.80;;;;;;;18.45;54.80;101480.84;5024306;28;20475;-72
2022/08/10 00:56:27;;;;;;;2.70;1.00;;;;;;;18.40;54.63;101475.34;5038735;28;20120;-73
2022/08/10 00:58:52;;;;;;;1.90;0.85;;;;;;;18.37;54.00;101476.78;5039986;28;20123;-71
2022/08/10 01:01:18;;;;;;;1.05;0.68;;;;;;;18.41;54.12;101482.56;5025634;28;20152;-72
2022/08/10 01:03:43;;;;;;;0.73;0.57;;;;;;;18.39;54.15;101473.72;5041440;28;20021;-70
2022/08/10 01:06:17;;;;;;;0.82;0.70;;;;;;;18.33;54.09;101469.38;5020904;28;20044;-72
2022/08/10 01:09:10;;;;;;;0.70;0.70;;;;;;;18.27;54.00;101463.88;5037758;28;20044;-72
2022/08/10 01:11:57;;;;;;;0.50;0.40;;;;;;;18.25;53.86;101466.13;5036785;28;20055;-74
2022/08/10 01:14:32;;;;;;;0.77;0.50;;;;;;;18.17;53.93;101454.84;5035150;28;20115;-72
2022/08/10 01:17:42;;;;;;;0.32;0.30;;;;;;;18.16;53.44;101459.53;5037571;28;20160;-72
2022/08/10 01:20:21;;;;;;;0.75;0.40;;;;;;;18.11;53.51;101454.06;5013281;28;20030;-72
2022/08/10 01:23:10;;;;;;;1.08;0.60;;;;;;;18.10;53.06;101455.19;5038542;28;20108;-71
2022/08/10 01:25:47;;;;;;;1.63;0.85;;;;;;;18.09;53.30;101461.81;5032116;28;20036;-71
2022/08/10 01:28:40;;;;;;;0.40;0.30;;;;;;;18.07;53.64;101461.31;5022712;28;20024;-71
2022/08/10 01:31:11;;;;;;;0.70;0.40;;;;;;;18.00;53.38;101446.97;5036385;28;20033;-72
2022/08/10 01:33:48;;;;;;;0.68;0.50;;;;;;;17.94;53.49;101451.75;5024129;28;20025;-72
2022/08/10 01:36:18;;;;;;;1.58;0.63;;;;;;;17.90;53.60;101451.50;5037184;28;20025;-71
2022/08/10 01:38:50;;;;;;;1.42;0.60;;;;;;;17.86;53.69;101447.63;5036914;28;20041;-73
2022/08/10 01:41:24;;;;;;;1.10;0.80;;;;;;;17.85;53.21;101457.03;5036019;28;20175;-72
2022/08/10 01:43:58;;;;;;;1.17;0.50;;;;;;;17.81;53.30;101447.66;5043461;28;20040;-71
2022/08/10 01:46:27;;;;;;;1.67;0.52;;;;;;;17.82;53.31;101457.63;5020266;28;20037;-72
2022/08/10 01:48:56;;;;;;;1.65;0.73;;;;;;;17.82;53.32;101449.31;5028762;28;20025;-71
2022/08/10 01:51:31;;;;;;;0.70;0.45;;;;;;;17.76;53.38;101439.44;5040224;28;20060;-73
2022/08/10 01:54:00;;;;;;;1.38;0.80;;;;;;;17.73;53.47;101446.34;5035584;28;20521;-72
2022/08/10 01:56:30;;;;;;;1.73;0.70;;;;;;;17.71;53.89;101442.22;5035551;28;20022;-70
2022/08/10 01:59:00;;;;;;;0.60;0.50;;;;;;;17.68;54.16;101442.81;5015957;28;20029;-70
2022/08/10 02:01:29;;;;;;;0.50;0.50;;;;;;;17.62;53.82;101437.31;5038177;28;20021;-72
2022/08/10 02:04:01;;;;;;;2.17;0.70;;;;;;;17.62;54.23;101440.09;5034593;28;20045;-72
2022/08/10 02:06:29;;;;;;;0.77;0.65;;;;;;;17.61;54.06;101432.91;5022385;28;20048;-70
2022/08/10 02:08:58;;;;;;;0.90;0.47;;;;;;;17.60;53.96;101436.78;4995624;28;20084;-71
2022/08/10 02:11:27;;;;;;;0.95;0.55;;;;;;;17.57;53.82;101437.34;5016241;28;20063;-73
2022/08/10 02:13:55;;;;;;;0.70;0.70;;;;;;;17.56;53.97;101441.22;5001453;28;20060;-72
2022/08/10 02:16:24;;;;;;;0.75;0.63;;;;;;;17.52;54.02;101444.88;5016721;28;20037;-73
2022/08/10 02:18:52;;;;;;;1.25;0.85;;;;;;;17.44;54.25;101432.50;5022127;28;20017;-69
2022/08/10 02:21:19;;;;;;;1.08;0.93;;;;;;;17.41;54.45;101433.06;5014232;28;20018;-69
2022/08/10 02:23:45;;;;;;;1.98;0.93;;;;;;;17.38;54.32;101433.66;4997337;28;20097;-69
2022/08/10 02:26:12;;;;;;;4.07;1.10;;;;;;;17.33;54.88;101437.25;5013225;28;20034;-71
2022/08/10 02:28:39;;;;;;;2.22;1.00;;;;;;;17.25;54.92;101435.91;4980285;28;20026;-69
2022/08/10 02:31:15;;;;;;;2.15;0.95;;;;;;;17.21;54.95;101426.53;4998877;28;20029;-71
2022/08/10 02:33:45;;;;;;;2.95;1.20;;;;;;;17.20;54.93;101437.88;4996179;28;20059;-71
2022/08/10 02:36:12;;;;;;;1.75;0.95;;;;;;;17.17;54.84;101438.47;4996146;28;20034;-70
2022/08/10 02:38:46;;;;;;;1.88;0.80;;;;;;;17.13;55.07;101438.22;5012914;28;20025;-71
2022/08/10 02:41:55;;;;;;;2.03;1.08;;;;;;;17.06;55.25;101421.13;5019585;28;20475;-69
2022/08/10 02:44:47;;;;;;;1.42;0.85;;;;;;;17.09;55.43;101428.84;4998333;28;20045;-72
2022/08/10 02:47:21;;;;;;;1.55;0.80;;;;;;;17.09;55.13;101428.84;5017908;28;20116;-70
2022/08/10 02:50:11;;;;;;;1.38;0.85;;;;;;;17.10;55.24;101427.75;5008554;28;20029;-71
2022/08/10 02:52:52;;;;;;;2.53;0.98;;;;;;;17.14;55.01;101417.75;5003129;28;20057;-74
2022/08/10 02:55:41;;;;;;;0.82;0.80;;;;;;;17.09;55.52;101426.09;5016717;28;20037;-74
2022/08/10 02:58:12;;;;;;;1.48;0.73;;;;;;;17.00;55.27;101423.09;5016710;28;20026;-74
2022/08/10 03:00:45;;;;;;;1.48;0.98;;;;;;;16.93;55.75;101423.41;4997799;28;20028;-70
2022/08/10 03:03:17;;;;;;;2.38;1.02;;;;;;;16.92;55.91;101427.28;5020438;28;20361;-70
2022/08/10 03:05:46;;;;;;;1.90;0.80;;;;;;;16.92;55.87;101421.75;5016673;28;20026;-72
2022/08/10 03:08:17;;;;;;;1.55;0.90;;;;;;;16.90;56.06;101420.38;4995842;28;20065;-73
2022/08/10 03:10:44;;;;;;;1.73;1.00;;;;;;;16.87;56.08;101416.25;4998323;28;20030;-72
2022/08/10 03:13:13;;;;;;;1.77;0.85;;;;;;;16.82;56.23;101421.78;5005505;28;20093;-72
2022/08/10 03:15:39;;;;;;;3.08;1.27;;;;;;;16.82;55.96;101415.41;5021750;28;20053;-72
2022/08/10 03:18:05;;;;;;;1.27;0.73;;;;;;;16.79;55.77;101419.56;4997444;28;20061;-72
2022/08/10 03:20:36;;;;;;;1.48;0.80;;;;;;;16.76;56.46;101417.38;5010773;28;20049;-73
2022/08/10 03:23:04;;;;;;;2.38;0.90;;;;;;;16.74;56.30;101422.38;5004464;28;20021;-72
2022/08/10 03:25:30;;;;;;;1.92;1.02;;;;;;;16.73;56.38;101417.94;5000959;28;20029;-72
2022/08/10 03:27:58;;;;;;;0.90;0.80;;;;;;;16.72;56.76;101411.63;4999350;28;20360;-73
2022/08/10 03:30:25;;;;;;;1.30;1.00;;;;;;;16.67;56.09;101408.03;5014301;28;20034;-72
2022/08/10 03:32:52;;;;;;;1.63;0.85;;;;;;;16.64;56.44;101403.09;5017558;28;20072;-72
2022/08/10 03:35:17;;;;;;;1.92;1.05;;;;;;;16.54;56.49;101401.19;5001177;28;20105;-74
2022/08/10 03:37:43;;;;;;;1.73;0.98;;;;;;;16.53;56.73;101413.38;5023019;28;20061;-73
2022/08/10 03:40:09;;;;;;;1.02;0.90;;;;;;;16.48;56.79;101408.66;5001525;28;20022;-72
2022/08/10 03:42:37;;;;;;;1.75;0.75;;;;;;;16.45;56.81;101400.94;5017795;28;20022;-71
2022/08/10 03:45:04;;;;;;;1.17;0.80;;;;;;;16.45;56.85;101411.19;5002291;28;20014;-72
2022/08/10 03:47:32;;;;;;;4.80;1.17;;;;;;;16.37;56.83;101407.06;5004160;28;20141;-71
2022/08/10 03:50:00;;;;;;;3.55;0.88;;;;;;;16.27;56.87;101398.81;5012829;28;20084;-70
2022/08/10 03:52:26;;;;;;;1.88;1.00;;;;;;;16.25;56.78;101401.03;5001043;28;20477;-71
2022/08/10 03:54:52;;;;;;;1.92;1.10;;;;;;;16.19;57.07;101402.97;5017878;28;20026;-72
2022/08/10 03:57:25;;;;;;;1.70;0.88;;;;;;;16.18;57.26;101396.63;5020939;28;20438;-73
2022/08/10 03:59:51;;;;;;;1.75;0.90;;;;;;;16.17;57.38;101403.25;5007317;28;20530;-71
2022/08/10 04:02:17;;;;;;;2.17;0.90;;;;;;;16.12;57.29;101400.50;5004960;28;20022;-70
2022/08/10 04:04:42;;;;;;;2.78;0.90;;;;;;;16.05;57.43;101402.75;5000788;28;20022;-72
2022/08/10 04:07:09;;;;;;;1.45;0.85;;;;;;;16.01;57.67;101398.88;4989701;28;20769;-73
2022/08/10 04:09:35;;;;;;;0.70;0.70;;;;;;;15.98;57.13;101403.00;5034611;28;20072;-71
2022/08/10 04:12:02;;;;;;;1.17;0.80;;;;;;;15.95;57.44;101400.00;5045220;28;20030;-71
2022/08/10 04:14:50;;;;;;;1.40;0.73;;;;;;;15.90;58.13;101383.44;5046909;28;20029;-73
2022/08/10 04:17:16;;;;;;;0.63;0.60;;;;;;;15.93;57.55;101393.91;5026290;28;20526;-73
2022/08/10 04:19:48;;;;;;;1.60;0.63;;;;;;;15.92;58.13;101395.03;5035813;28;20049;-71
2022/08/10 04:22:17;;;;;;;3.00;1.00;;;;;;;15.87;58.02;101393.94;5033018;28;20019;-72
2022/08/10 04:24:45;;;;;;;1.45;0.70;;;;;;;15.90;57.89;101405.50;5040144;28;20025;-73
2022/08/10 04:27:12;;;;;;;1.33;0.68;;;;;;;15.81;58.23;101392.31;5041592;28;20021;-71
2022/08/10 04:29:38;;;;;;;0.85;0.70;;;;;;;15.81;57.75;101394.22;5045646;28;20088;-73
2022/08/10 04:32:05;;;;;;;0.88;0.50;;;;;;;15.79;57.89;101402.75;5021278;28;20041;-71
2022/08/10 04:34:31;;;;;;;2.38;0.80;;;;;;;15.79;57.58;101394.50;5013825;28;20056;-72
2022/08/10 04:36:59;;;;;;;0.90;0.70;;;;;;;15.80;57.71;101398.91;5036952;28;20096;-73
2022/08/10 04:39:25;;;;;;;1.40;0.90;;;;;;;15.78;57.81;101395.59;5030752;28;20048;-73
2022/08/10 04:41:51;;;;;;;1.40;0.73;;;;;;;15.75;58.30;101398.88;5037146;28;20535;-73
2022/08/10 04:44:16;;;;;;;0.82;0.63;;;;;;;15.74;58.17;101402.75;5036401;28;20025;-73
2022/08/10 04:46:42;;;;;;;0.70;0.40;;;;;;;15.68;57.86;101398.31;5002084;28;20475;-72
2022/08/10 04:49:07;;;;;;;1.63;0.73;;;;;;;15.67;57.99;101399.44;5039902;28;20032;-72
2022/08/10 04:51:33;;;;;;;1.30;0.70;;;;;;;15.68;57.91;101403.84;5040492;28;20036;-74
2022/08/10 04:53:58;;;;;;;3.00;0.60;;;;;;;15.68;57.99;101403.84;5038358;28;20033;-72
2022/08/10 04:56:23;;;;;;;4.30;0.80;;;;;;;15.72;57.95;101421.50;5020820;28;20026;-73
2022/08/10 04:58:49;;;;;;;1.15;0.70;;;;;;;15.71;57.98;101419.81;5008053;28;20041;-74
2022/08/10 05:01:14;;;;;;;2.38;0.70;;;;;;;15.70;58.16;101418.19;5038320;28;20747;-75
2022/08/10 05:03:40;;;;;;;1.52;0.80;;;;;;;15.73;58.19;101423.16;5037443;28;20395;-72
2022/08/10 05:06:05;;;;;;;1.77;0.80;;;;;;;15.70;58.52;101419.00;5042545;28;20475;-71
2022/08/10 05:08:31;;;;;;;2.38;1.10;;;;;;;15.72;58.50;101424.25;5021676;28;20041;-73
2022/08/10 05:10:56;;;;;;;1.63;0.90;;;;;;;15.73;58.09;101428.66;5038768;28;20037;-73
2022/08/10 05:13:22;;;;;;;0.98;0.82;;;;;;;15.77;57.93;101429.78;5020355;28;20029;-74
2022/08/10 05:15:50;;;;;;;1.13;0.82;;;;;;;15.77;58.23;101424.25;5022167;28;20072;-74
2022/08/10 05:18:15;;;;;;;1.30;0.75;;;;;;;15.83;58.33;101433.38;5021915;28;20048;-72
2022/08/10 05:20:41;;;;;;;3.47;1.00;;;;;;;15.92;57.76;101430.91;5019244;28;20087;-72
2022/08/10 05:23:06;;;;;;;4.38;1.10;;;;;;;15.96;57.55;101432.81;5000540;28;20038;-74
2022/08/10 05:25:32;;;;;;;0.73;0.73;;;;;;;15.96;58.07;101431.97;5022134;28;20041;-74
2022/08/10 05:27:57;;;;;;;2.83;1.30;;;;;;;15.94;57.98;101428.69;5034137;28;20052;-73
2022/08/10 05:30:23;;;;;;;2.45;1.00;;;;;;;15.96;57.78;101426.47;5037942;28;20033;-72
2022/08/10 05:32:49;;;;;;;2.22;1.30;;;;;;;15.97;58.23;101422.59;5038258;28;20037;-74
2022/08/10 05:35:14;;;;;;;1.65;0.90;;;;;;;16.03;57.99;101427.00;5034724;28;20032;-73
2022/08/10 05:37:42;;;;;;;2.55;1.10;;;;;;;16.03;58.31;101427.00;5006500;28;20049;-73
2022/08/10 05:40:08;;;;;;;4.65;1.20;;;;;;;16.07;58.37;101421.78;5038990;28;20543;-72
2022/08/10 05:42:34;;;;;;;2.33;1.00;;;;;;;16.15;58.30;101424.78;5016453;28;20052;-71
2022/08/10 05:45:00;;;;;;;1.40;0.80;;;;;;;16.17;58.31;101427.25;5021915;28;20059;-72
2022/08/10 05:47:26;;;;;;;2.78;1.13;;;;;;;16.31;58.21;101430.25;5033226;28;20091;-72
2022/08/10 05:49:51;;;;;;;2.55;1.02;;;;;;;16.35;58.33;101428.59;5016752;28;20052;-72
2022/08/10 05:52:18;;;;;;;1.38;0.95;;;;;;;16.37;57.99;101431.91;5013530;28;20188;-72
2022/08/10 05:54:44;;;;;;;0.90;0.85;;;;;;;16.42;58.31;101444.88;5022700;28;20036;-73
2022/08/10 05:57:17;;;;;;;4.40;1.00;;;;;;;16.45;58.13;101438.78;5018191;28;20045;-72
2022/08/10 05:59:48;;;;;;;3.40;1.20;;;;;;;16.53;58.24;101441.78;5043092;28;20021;-72
2022/08/10 06:02:21;;;;;;;1.58;0.90;;;;;;;16.61;58.31;101442.31;5017112;28;20014;-74
2022/08/10 06:04:59;;;;;;;1.92;1.00;;;;;;;16.67;58.00;101452.22;5033055;28;20022;-71
2022/08/10 06:07:27;;;;;;;1.88;1.27;;;;;;;16.69;58.39;101438.94;5032019;28;20105;-73
2022/08/10 06:09:55;;;;;;;1.30;0.88;;;;;;;16.77;58.08;101440.31;5035581;28;20530;-73
2022/08/10 06:12:22;;;;;;;2.95;1.20;;;;;;;16.87;58.03;101438.34;5028019;28;20029;-74
2022/08/10 06:15:01;;;;;;;3.03;1.40;;;;;;;16.87;58.94;101443.03;5015760;28;20033;-75
2022/08/10 06:17:30;;;;;;;3.50;1.45;;;;;;;16.78;59.16;101442.81;5033961;28;20037;-72
2022/08/10 06:20:00;;;;;;;5.07;1.65;;;;;;;16.81;59.39;101453.28;5023122;28;20056;-73
2022/08/10 06:22:27;;;;;;;2.28;1.20;;;;;;;16.81;59.11;101447.75;5013317;28;20052;-74
2022/08/10 06:24:55;;;;;;;3.15;1.52;;;;;;;16.77;59.25;101446.66;5036021;28;20029;-73
2022/08/10 06:27:20;;;;;;;6.97;1.50;;;;;;;16.81;59.82;101457.97;5022424;28;20062;-73
2022/08/10 06:29:47;;;;;;;1.40;1.10;;;;;;;16.82;59.51;101452.19;5014697;28;20017;-72
2022/08/10 06:32:15;;;;;;;1.63;1.00;;;;;;;16.88;59.12;101453.81;5030683;28;20475;-73
2022/08/10 06:34:56;;;;;;;1.88;0.90;;;;;;;16.96;59.27;101448.81;5018545;28;20494;-74
2022/08/10 06:37:28;;;;;;;1.50;1.00;;;;;;;17.09;58.93;101453.72;5032941;28;20025;-73
2022/08/10 06:39:54;;;;;;;1.80;1.17;;;;;;;17.17;59.19;101444.84;5022143;28;20029;-74
2022/08/10 06:42:25;;;;;;;4.50;1.20;;;;;;;17.27;59.31;101447.53;5037033;28;20109;-73
2022/08/10 06:44:55;;;;;;;3.75;1.20;;;;;;;17.34;58.83;101440.84;5019415;28;20029;-74
2022/08/10 06:47:28;;;;;;;5.30;1.40;;;;;;;17.50;59.35;101453.44;5022412;28;20314;-75
2022/08/10 06:49:57;;;;;;;3.50;1.30;;;;;;;17.60;58.87;101445.06;5024186;28;20108;-73
2022/08/10 06:52:24;;;;;;;2.83;1.38;;;;;;;17.73;58.56;101443.59;5035926;28;20032;-73
2022/08/10 06:54:53;;;;;;;1.58;0.88;;;;;;;17.85;58.58;101440.44;5034292;28;20085;-73
2022/08/10 06:57:23;;;;;;;1.98;0.98;;;;;;;17.98;58.61;101436.22;5037466;28;20036;-72
2022/08/10 06:59:51;;;;;;;2.17;1.10;;;;;;;18.13;58.66;101438.81;5035140;28;20060;-72
2022/08/10 07:02:48;;;;;;;2.20;1.10;;;;;;;18.27;58.50;101441.72;5038235;28;20082;-73
2022/08/10 07:05:19;;;;;;;4.28;1.13;;;;;;;18.40;58.02;101436.59;5027841;28;20116;-73
2022/08/10 07:07:46;;;;;;;2.65;1.45;;;;;;;18.51;58.37;101449.19;5016947;28;20057;-72
2022/08/10 07:10:17;;;;;;;2.10;1.27;;;;;;;18.58;58.26;101437.78;4993249;28;20029;-72
2022/08/10 07:12:44;;;;;;;3.95;1.83;;;;;;;18.70;58.25;101445.66;5014668;28;20113;-75
2022/08/10 07:15:11;;;;;;;5.43;1.25;;;;;;;18.77;58.44;101446.13;4977324;28;20022;-74
2022/08/10 07:17:38;;;;;;;8.65;1.33;;;;;;;18.87;58.42;101439.66;5014390;28;20231;-72
2022/08/10 07:20:07;;;;;;;3.85;1.20;;;;;;;18.95;58.40;101434.28;5010457;28;20041;-77
2022/08/10 07:22:35;;;;;;;3.05;1.08;;;;;;;19.01;58.19;101433.09;5001188;28;20494;-74
2022/08/10 07:25:01;;;;;;;8.23;1.40;;;;;;;19.16;58.39;101439.53;5020558;28;20033;-73
2022/08/10 07:27:29;;;;;;;3.15;1.52;;;;;;;19.27;58.78;101443.78;5014429;28;20796;-72
2022/08/10 07:29:55;;;;;;;6.05;1.45;;;;;;;19.40;58.55;101441.41;5000253;28;20014;-73
2022/08/10 07:32:23;;;;;;;1.30;0.98;;;;;;;19.54;57.95;101431.19;5015467;28;20129;-73
2022/08/10 07:34:52;;;;;;;1.70;1.10;;;;;;;19.70;57.51;101435.34;5006643;28;20029;-72
2022/08/10 07:37:19;;;;;;;1.95;1.08;;;;;;;19.86;57.67;101437.91;5013227;28;20058;-74
2022/08/10 07:39:48;;;;;;;2.25;1.15;;;;;;;20.04;57.33;101428.66;5020777;28;20092;-73
2022/08/10 07:42:17;;;;;;;2.05;1.00;;;;;;;20.14;56.83;101430.44;5002746;28;20022;-73
2022/08/10 07:44:45;;;;;;;3.15;1.27;;;;;;;20.32;56.71;101434.25;5004813;28;20025;-73
2022/08/10 07:47:15;;;;;;;5.50;1.77;;;;;;;20.46;56.65;101427.88;5016198;28;20053;-75
2022/08/10 07:49:44;;;;;;;1.90;1.17;;;;;;;20.56;56.67;101433.25;4999709;28;20026;-73
2022/08/10 07:52:10;;;;;;;2.90;1.35;;;;;;;20.68;56.12;101436.34;5012310;28;20499;-72
2022/08/10 07:54:40;;;;;;;4.07;1.35;;;;;;;20.82;55.97;101427.16;5001491;28;20141;-72
2022/08/10 07:57:16;;;;;;;2.17;1.15;;;;;;;20.94;55.82;101424.69;5018504;28;20057;-74
2022/08/10 07:59:45;;;;;;;4.60;1.20;;;;;;;21.14;55.83;101425.34;5003528;28;20030;-73
2022/08/10 08:02:26;;;;;;;4.72;1.38;;;;;;;21.31;55.46;101427.47;4998828;28;20017;-74
2022/08/10 08:04:55;;;;;;;3.15;1.27;;;;;;;21.41;55.09;101414.13;4997309;28;20021;-72
2022/08/10 08:07:21;;;;;;;4.22;1.27;;;;;;;21.56;55.06;101421.28;5019909;28;20050;-72
2022/08/10 08:09:54;;;;;;;3.40;1.00;;;;;;;21.69;54.46;101414.00;5025204;28;20041;-73
2022/08/10 08:12:19;;;;;;;3.95;0.95;;;;;;;21.83;54.44;101413.09;5023431;28;20033;-72
2022/08/10 08:14:48;;;;;;;2.63;0.80;;;;;;;22.00;53.72;101415.97;4998319;28;20045;-73
2022/08/10 08:17:15;;;;;;;2.67;0.90;;;;;;;22.14;53.84;101408.34;5013411;28;20113;-73
2022/08/10 08:19:45;;;;;;;1.92;1.10;;;;;;;22.30;53.25;101413.50;5012028;28;20024;-72
2022/08/10 08:22:11;;;;;;;3.20;0.90;;;;;;;22.48;53.13;101414.41;5015403;28;20399;-72
2022/08/10 08:24:38;;;;;;;5.60;1.08;;;;;;;22.63;53.07;101410.34;4991349;28;20044;-73
2022/08/10 08:27:04;;;;;;;3.40;1.30;;;;;;;22.81;52.27;101406.47;5022780;28;20052;-74
2022/08/10 08:29:33;;;;;;;3.65;1.13;;;;;;;22.95;52.09;101402.69;5010442;28;20038;-72
2022/08/10 08:32:01;;;;;;;2.03;1.10;;;;;;;23.06;51.29;101409.59;5023552;28;20395;-74
2022/08/10 08:34:27;;;;;;;3.67;1.17;;;;;;;23.16;51.06;101402.91;5019310;28;20067;-73
2022/08/10 08:36:54;;;;;;;2.42;1.13;;;;;;;23.27;51.32;101393.06;4991213;28;20038;-72
2022/08/10 08:39:19;;;;;;;3.00;1.20;;;;;;;23.44;50.61;101397.81;4982101;28;20033;-74
2022/08/10 08:42:02;;;;;;;3.47;1.13;;;;;;;23.59;49.51;101398.44;4998414;28;20033;-74
2022/08/10 08:44:59;;;;;;;1.70;1.00;;;;;;;23.79;49.96;101392.16;5014268;28;20021;-72
2022/08/10 08:47:46;;;;;;;1.73;1.00;;;;;;;23.96;48.61;101396.91;5012486;28;20514;-72
2022/08/10 08:50:35;;;;;;;3.78;1.40;;;;;;;24.13;48.84;101401.59;5022317;28;20022;-74
2022/08/10 08:53:23;;;;;;;2.45;1.20;;;;;;;24.27;48.64;101400.53;4998670;28;20018;-74
2022/08/10 08:56:05;;;;;;;3.70;1.13;;;;;;;24.38;48.21;101382.25;5017276;28;20113;-74
2022/08/10 08:58:49;;;;;;;4.30;1.40;;;;;;;24.54;47.58;101383.28;5014304;28;20034;-75
2022/08/10 09:01:33;;;;;;;;;;;;;;;24.71;47.28;101387.19;5018512;28;20068;-73
2022/08/10 09:04:27;;;;;;;3.70;1.10;;;;;;;24.88;46.43;101386.22;5007908;28;19960;-73
2022/08/10 09:07:21;;;;;;;2.38;1.10;;;;;;;25.05;46.29;101380.50;5018516;28;20025;-74
2022/08/10 09:10:03;;;;;;;2.35;1.02;;;;;;;25.15;45.19;101375.66;5017694;28;20029;-73
2022/08/10 09:12:53;;;;;;;1.83;0.80;;;;;;;25.24;45.37;101377.19;5016181;28;20057;-73
2022/08/10 09:15:52;;;;;;;3.15;1.10;;;;;;;25.40;44.72;101377.41;5018142;28;20076;-73
2022/08/10 09:18:51;;;;;;;2.50;1.02;;;;;;;25.54;44.45;101371.53;5001875;28;20485;-73
2022/08/10 09:21:43;;;;;;;1.35;0.85;;;;;;;25.66;43.06;101364.31;5015445;28;20117;-74
2022/08/10 09:24:41;;;;;;;2.10;1.05;;;;;;;25.74;43.47;101371.78;4977196;28;20026;-74
2022/08/10 09:27:17;;;;;;;1.77;0.98;;;;;;;25.95;42.88;101371.72;5014266;28;20052;-72
2022/08/10 09:29:51;;;;;;;4.63;1.17;;;;;;;26.39;42.66;101374.00;5017313;28;20089;-73
2022/08/10 09:32:30;;;;;;;2.08;1.17;;;;;;;27.71;40.01;101375.47;4996208;28;20022;-74
2022/08/10 09:35:17;;;;;;;3.60;0.93;;;;;;;31.15;33.93;101380.66;5006483;28;20036;-74
2022/08/10 09:37:42;;;;;;;1.48;0.70;;;;;;;34.48;28.70;101380.47;5002985;28;20021;-74
2022/08/10 09:40:30;;;;;;;3.08;1.00;;;;;;;37.94;24.08;101385.94;5016049;28;20365;-74
2022/08/10 09:43:25;;;;;;;1.48;0.60;;;;;;;40.83;20.78;101386.81;5022593;28;20148;-74
2022/08/10 09:45:56;;;;;;;4.20;0.93;;;;;;;42.53;18.80;101380.09;5000205;28;20090;-72
2022/08/10 09:48:37;;;;;;;1.17;0.50;;;;;;;44.34;17.97;101370.03;5024465;28;20140;-74
2022/08/10 09:51:13;;;;;;;1.98;0.60;;;;;;;45.55;15.82;101368.47;5021070;28;20044;-72
2022/08/10 09:53:59;;;;;;;2.78;0.70;;;;;;;47.13;15.34;101372.94;5016870;28;20456;-74
2022/08/10 09:56:35;;;;;;;2.80;0.80;;;;;;;47.92;13.87;101371.22;5001815;28;20606;-73
2022/08/10 09:59:25;;;;;;;3.33;1.02;;;;;;;49.10;13.29;101371.69;5021279;28;20040;-73
2022/08/10 10:02:04;;;;;;;1.48;0.65;;;;;;;50.58;12.72;101357.88;5015257;28;20022;-74
2022/08/10 10:04:57;;;;;;;1.65;0.70;;;;;;;51.67;11.67;101360.22;5008964;28;20060;-74
2022/08/10 10:07:28;;;;;;;1.53;0.60;;;;;;;51.82;10.30;101351.91;5008545;28;20054;-74
2022/08/10 10:10:03;;;;;;;0.65;0.43;;;;;;;53.05;9.97;101347.94;5014203;28;20476;-74
2022/08/10 10:12:58;;;;;;;1.75;0.70;;;;;;;54.13;9.20;101343.75;5021063;28;20029;-74
2022/08/10 10:16:06;;;;;;;4.13;0.70;;;;;;;54.25;8.46;101343.03;5010200;28;20029;-74
2022/08/10 10:18:50;;;;;;;1.00;0.47;;;;;;;55.02;8.17;101345.78;4978546;28;20048;-74
2022/08/10 10:21:40;;;;;;;0.77;0.60;;;;;;;55.45;8.13;101338.81;5012145;28;20475;-74
2022/08/10 10:24:26;;;;;;;0.68;0.40;;;;;;;55.40;8.25;101336.81;5020585;28;20037;-73
2022/08/10 10:27:10;;;;;;;1.70;0.55;;;;;;;56.24;7.81;101327.50;5014773;28;20026;-74
2022/08/10 10:29:59;;;;;;;0.98;0.50;;;;;;;56.82;7.78;101323.34;5022156;28;20052;-74
2022/08/10 10:32:30;;;;;;;1.20;0.73;;;;;;;57.37;7.22;101323.75;5017457;28;20164;-75
2022/08/10 10:35:11;;;;;;;1.80;0.47;;;;;;;56.67;6.98;101328.34;5011631;28;20113;-76
2022/08/10 10:37:37;;;;;;;6.90;0.63;;;;;;;55.26;6.75;101318.41;5016998;28;20030;-74
2022/08/10 10:40:06;;;;;;;0.93;0.43;;;;;;;54.49;7.64;101323.78;5014255;28;20518;-75
2022/08/10 10:43:04;;;;;;;1.17;0.50;;;;;;;55.19;6.96;101322.81;4998204;28;20030;-75
2022/08/10 10:46:05;;;;;;;1.08;0.50;;;;;;;55.87;6.51;101330.19;5012417;28;20026;-74
2022/08/10 10:48:40;;;;;;;5.57;0.82;;;;;;;56.45;6.04;101324.59;5011434;28;20021;-75
2022/08/10 10:51:17;;;;;;;3.28;0.70;;;;;;;57.04;6.13;101314.53;5014556;28;20380;-74
2022/08/10 10:54:09;;;;;;;1.00;0.50;;;;;;;57.58;5.95;101312.72;5012256;28;20084;-74
2022/08/10 10:56:34;;;;;;;0.88;0.30;;;;;;;58.20;5.61;101315.88;5007035;28;20052;-73
2022/08/10 10:59:06;;;;;;;0.88;0.45;;;;;;;58.53;5.05;101304.31;5014246;28;20033;-74
2022/08/10 11:02:13;;;;;;;2.17;0.82;;;;;;;58.44;5.48;101299.78;5022166;28;20021;-74
2022/08/10 11:05:06;;;;;;;3.25;0.55;;;;;;;58.00;4.91;101291.88;5021094;28;20495;-75
2022/08/10 11:07:37;;;;;;;0.40;0.30;;;;;;;57.68;5.49;101290.19;5011338;28;20049;-73
2022/08/10 11:10:10;;;;;;;6.10;0.50;;;;;;;57.66;5.30;101292.16;5007020;28;20109;-74
2022/08/10 11:12:45;;;;;;;1.17;0.50;;;;;;;57.71;5.53;101294.13;5017762;28;20025;-75
2022/08/10 11:15:46;;;;;;;0.80;0.60;;;;;;;58.75;5.25;101290.19;5015239;28;20114;-74
2022/08/10 11:18:24;;;;;;;1.88;0.50;;;;;;;58.99;4.66;101283.69;4981350;28;20451;-74
2022/08/10 11:21:35;;;;;;;3.60;0.60;;;;;;;59.52;4.61;101292.97;5010084;28;20032;-75
2022/08/10 11:24:31;;;;;;;1.60;0.60;;;;;;;60.21;4.48;101279.97;5001003;28;20049;-74
2022/08/10 11:27:14;;;;;;;0.52;0.30;;;;;;;61.49;4.28;101279.13;5005567;28;20400;-74
2022/08/10 11:29:51;;;;;;;1.30;0.60;;;;;;;61.73;3.73;101275.22;5013736;28;20076;-75
2022/08/10 11:32:23;;;;;;;0.77;0.40;;;;;;;62.05;3.80;101269.63;5013400;28;20084;-75
2022/08/10 11:35:06;;;;;;;0.22;0.20;;;;;;;63.01;3.56;101267.53;5005648;28;20050;-74
2022/08/10 11:37:40;;;;;;;1.00;0.60;;;;;;;63.22;3.25;101266.13;5000091;28;20120;-75
2022/08/10 11:40:14;;;;;;;1.50;0.50;;;;;;;62.61;2.76;101254.06;5020884;28;20028;-74
2022/08/10 11:42:45;;;;;;;1.58;0.40;;;;;;;62.19;3.46;101255.19;5013838;28;20057;-75
2022/08/10 11:45:20;;;;;;;0.63;0.43;;;;;;;63.06;3.26;101253.78;5013772;28;20034;-75
2022/08/10 11:47:57;;;;;;;1.65;0.55;;;;;;;63.48;2.66;101250.31;4994941;28;20022;-74
2022/08/10 11:50:38;;;;;;;3.00;0.45;;;;;;;63.80;2.71;101239.31;5013414;28;20037;-76
2022/08/10 11:53:16;;;;;;;0.85;0.40;;;;;;;64.09;2.86;101241.38;5020094;28;20038;-73